sensor_id;sensor_type;location;lat;lon;timestamp;temperature;humidity
51841;DHT22;37888;53.246;6.658;2022-09-09T00:00:18;15.20;99.90
51841;DHT22;37888;53.246;6.658;2022-09-09T00:02:46;15.20;99.90
51841;DHT22;37888;53.246;6.658;2022-09-09T00:07:54;15.20;99.90
51841;DHT22;37888;53.246;6.658;2022-09-09T00:10:32;15.20;99.90
51841;DHT22;37888;53.246;6.658;2022-09-09T00:18:28;15.20;99.90
51841;DHT22;37888;53.246;6.658;2022-09-09T00:20:58;15.10;99.90
51841;DHT22;37888;53.246;6.658;2022-09-09T00:23:30;15.10;99.90
51841;DHT22;37888;53.246;6.658;2022-09-09T00:28:25;15.00;99.90
51841;DHT22;37888;53.246;6.658;2022-09-09T00:30:52;15.00;99.90
51841;DHT22;37888;53.246;6.658;2022-09-09T00:33:20;15.00;99.90
51841;DHT22;37888;53.246;6.658;2022-09-09T00:35:59;15.00;99.90
51841;DHT22;37888;53.246;6.658;2022-09-09T00:38:32;14.90;99.90
51841;DHT22;37888;53.246;6.658;2022-09-09T00:41:04;14.90;99.90
51841;DHT22;37888;53.246;6.658;2022-09-09T00:43:40;14.80;99.90
51841;DHT22;37888;53.246;6.658;2022-09-09T00:46:25;14.80;99.90
51841;DHT22;37888;53.246;6.658;2022-09-09T00:48:58;14.80;99.90
51841;DHT22;37888;53.246;6.658;2022-09-09T00:51:30;14.80;99.90
51841;DHT22;37888;53.246;6.658;2022-09-09T00:54:11;14.80;99.90
51841;DHT22;37888;53.246;6.658;2022-09-09T00:56:46;14.70;99.90
51841;DHT22;37888;53.246;6.658;2022-09-09T00:59:28;14.70;99.90
51841;DHT22;37888;53.246;6.658;2022-09-09T01:01:57;14.60;99.90
51841;DHT22;37888;53.246;6.658;2022-09-09T01:04:29;14.60;99.90
51841;DHT22;37888;53.246;6.658;2022-09-09T01:07:01;14.60;99.90
51841;DHT22;37888;53.246;6.658;2022-09-09T01:12:03;14.60;99.90
51841;DHT22;37888;53.246;6.658;2022-09-09T01:22:20;14.60;99.90
51841;DHT22;37888;53.246;6.658;2022-09-09T01:25:01;14.50;99.90
51841;DHT22;37888;53.246;6.658;2022-09-09T01:27:32;14.50;99.90
51841;DHT22;37888;53.246;6.658;2022-09-09T01:29:59;14.50;99.90
51841;DHT22;37888;53.246;6.658;2022-09-09T01:35:32;14.40;99.90
51841;DHT22;37888;53.246;6.658;2022-09-09T01:37:56;14.40;99.90
51841;DHT22;37888;53.246;6.658;2022-09-09T01:40:22;14.40;99.90
51841;DHT22;37888;53.246;6.658;2022-09-09T01:42:48;14.40;99.90
51841;DHT22;37888;53.246;6.658;2022-09-09T01:45:14;14.30;99.90
51841;DHT22;37888;53.246;6.658;2022-09-09T01:47:40;14.30;99.90
51841;DHT22;37888;53.246;6.658;2022-09-09T01:50:08;14.30;99.90
51841;DHT22;37888;53.246;6.658;2022-09-09T01:52:36;14.30;99.90
51841;DHT22;37888;53.246;6.658;2022-09-09T01:55:03;14.30;99.90
51841;DHT22;37888;53.246;6.658;2022-09-09T01:57:44;14.20;99.90
51841;DHT22;37888;53.246;6.658;2022-09-09T02:00:15;14.30;99.90
51841;DHT22;37888;53.246;6.658;2022-09-09T02:08:50;14.20;99.90
51841;DHT22;37888;53.246;6.658;2022-09-09T02:11:18;14.20;99.90
51841;DHT22;37888;53.246;6.658;2022-09-09T02:13:45;14.20;99.90
51841;DHT22;37888;53.246;6.658;2022-09-09T02:21:06;14.60;99.90
51841;DHT22;37888;53.246;6.658;2022-09-09T02:23:32;14.10;99.90
51841;DHT22;37888;53.246;6.658;2022-09-09T02:25:59;14.10;99.90
51841;DHT22;37888;53.246;6.658;2022-09-09T02:28:26;14.10;99.90
51841;DHT22;37888;53.246;6.658;2022-09-09T02:30:54;14.10;99.90
51841;DHT22;37888;53.246;6.658;2022-09-09T02:33:27;14.10;99.90
51841;DHT22;37888;53.246;6.658;2022-09-09T02:35:53;14.10;99.90
51841;DHT22;37888;53.246;6.658;2022-09-09T02:38:22;14.00;99.90
51841;DHT22;37888;53.246;6.658;2022-09-09T02:40:51;14.00;99.90
51841;DHT22;37888;53.246;6.658;2022-09-09T02:43:17;14.00;99.90
51841;DHT22;37888;53.246;6.658;2022-09-09T02:45:56;14.00;99.90
51841;DHT22;37888;53.246;6.658;2022-09-09T02:51:14;14.00;99.90
51841;DHT22;37888;53.246;6.658;2022-09-09T02:54:01;14.00;99.90
51841;DHT22;37888;53.246;6.658;2022-09-09T02:56:30;14.00;99.90
51841;DHT22;37888;53.246;6.658;2022-09-09T02:58:58;14.00;99.90
51841;DHT22;37888;53.246;6.658;2022-09-09T03:01:24;14.00;99.90
51841;DHT22;37888;53.246;6.658;2022-09-09T03:03:50;14.10;99.90
51841;DHT22;37888;53.246;6.658;2022-09-09T03:06:16;14.00;99.90
51841;DHT22;37888;53.246;6.658;2022-09-09T03:08:42;14.10;99.90
51841;DHT22;37888;53.246;6.658;2022-09-09T03:11:07;14.10;99.90
51841;DHT22;37888;53.246;6.658;2022-09-09T03:13:34;14.10;99.90
51841;DHT22;37888;53.246;6.658;2022-09-09T03:16:00;14.10;99.90
51841;DHT22;37888;53.246;6.658;2022-09-09T03:18:26;14.20;99.90
51841;DHT22;37888;53.246;6.658;2022-09-09T03:20:54;14.10;99.90
51841;DHT22;37888;53.246;6.658;2022-09-09T03:23:20;14.20;99.90
51841;DHT22;37888;53.246;6.658;2022-09-09T03:25:47;14.20;99.90
51841;DHT22;37888;53.246;6.658;2022-09-09T03:28:13;14.20;99.90
51841;DHT22;37888;53.246;6.658;2022-09-09T03:30:39;14.20;99.90
51841;DHT22;37888;53.246;6.658;2022-09-09T03:33:05;14.30;99.90
51841;DHT22;37888;53.246;6.658;2022-09-09T03:35:33;14.30;99.90
51841;DHT22;37888;53.246;6.658;2022-09-09T03:37:59;14.30;99.90
51841;DHT22;37888;53.246;6.658;2022-09-09T03:40:26;14.30;99.90
51841;DHT22;37888;53.246;6.658;2022-09-09T03:42:52;14.30;99.90
51841;DHT22;37888;53.246;6.658;2022-09-09T03:45:18;14.40;99.90
51841;DHT22;37888;53.246;6.658;2022-09-09T03:47:44;14.30;99.90
51841;DHT22;37888;53.246;6.658;2022-09-09T03:50:10;14.40;99.90
51841;DHT22;37888;53.246;6.658;2022-09-09T03:52:38;14.40;99.90
51841;DHT22;37888;53.246;6.658;2022-09-09T03:55:04;14.40;99.90
51841;DHT22;37888;53.246;6.658;2022-09-09T03:57:30;14.40;99.90
51841;DHT22;37888;53.246;6.658;2022-09-09T03:59:57;14.40;99.90
51841;DHT22;37888;53.246;6.658;2022-09-09T04:05:09;14.40;99.90
51841;DHT22;37888;53.246;6.658;2022-09-09T04:07:35;14.50;99.90
51841;DHT22;37888;53.246;6.658;2022-09-09T04:10:02;14.50;99.90
51841;DHT22;37888;53.246;6.658;2022-09-09T04:12:27;14.50;99.90
51841;DHT22;37888;53.246;6.658;2022-09-09T04:14:53;14.50;99.90
51841;DHT22;37888;53.246;6.658;2022-09-09T04:17:19;14.50;99.90
51841;DHT22;37888;53.246;6.658;2022-09-09T04:19:45;14.60;99.90
51841;DHT22;37888;53.246;6.658;2022-09-09T04:22:13;14.60;99.90
51841;DHT22;37888;53.246;6.658;2022-09-09T04:24:40;14.60;99.90
51841;DHT22;37888;53.246;6.658;2022-09-09T04:27:05;14.60;99.90
51841;DHT22;37888;53.246;6.658;2022-09-09T04:29:33;14.60;99.90
51841;DHT22;37888;53.246;6.658;2022-09-09T04:31:59;14.60;99.90
51841;DHT22;37888;53.246;6.658;2022-09-09T04:34:25;14.60;99.90
51841;DHT22;37888;53.246;6.658;2022-09-09T04:36:51;14.70;99.90
51841;DHT22;37888;53.246;6.658;2022-09-09T04:39:17;14.70;99.90
51841;DHT22;37888;53.246;6.658;2022-09-09T04:41:43;14.70;99.90
51841;DHT22;37888;53.246;6.658;2022-09-09T04:44:09;14.70;99.90
51841;DHT22;37888;53.246;6.658;2022-09-09T04:46:35;14.70;99.90
51841;DHT22;37888;53.246;6.658;2022-09-09T04:49:02;14.70;99.90
51841;DHT22;37888;53.246;6.658;2022-09-09T04:51:27;14.70;99.90
51841;DHT22;37888;53.246;6.658;2022-09-09T04:53:53;14.80;99.90
51841;DHT22;37888;53.246;6.658;2022-09-09T04:56:19;14.80;99.90
51841;DHT22;37888;53.246;6.658;2022-09-09T04:58:45;14.70;99.90
51841;DHT22;37888;53.246;6.658;2022-09-09T05:01:15;14.70;99.90
51841;DHT22;37888;53.246;6.658;2022-09-09T05:03:43;14.70;99.90
51841;DHT22;37888;53.246;6.658;2022-09-09T05:06:11;14.70;99.90
51841;DHT22;37888;53.246;6.658;2022-09-09T05:08:38;14.70;99.90
51841;DHT22;37888;53.246;6.658;2022-09-09T05:11:12;14.70;99.90
51841;DHT22;37888;53.246;6.658;2022-09-09T05:13:38;14.70;99.90
51841;DHT22;37888;53.246;6.658;2022-09-09T05:16:04;14.70;99.90
51841;DHT22;37888;53.246;6.658;2022-09-09T05:18:30;14.70;99.90
51841;DHT22;37888;53.246;6.658;2022-09-09T05:20:59;14.70;99.90
51841;DHT22;37888;53.246;6.658;2022-09-09T05:23:26;14.70;99.90
51841;DHT22;37888;53.246;6.658;2022-09-09T05:25:56;14.60;99.90
51841;DHT22;37888;53.246;6.658;2022-09-09T05:28:23;14.60;99.90
51841;DHT22;37888;53.246;6.658;2022-09-09T05:30:59;14.60;99.90
51841;DHT22;37888;53.246;6.658;2022-09-09T05:33:33;14.70;99.90
51841;DHT22;37888;53.246;6.658;2022-09-09T05:36:09;14.60;99.90
51841;DHT22;37888;53.246;6.658;2022-09-09T05:38:37;14.60;99.90
51841;DHT22;37888;53.246;6.658;2022-09-09T05:41:03;14.70;99.90
51841;DHT22;37888;53.246;6.658;2022-09-09T05:43:29;14.60;99.90
51841;DHT22;37888;53.246;6.658;2022-09-09T05:46:02;14.60;99.90
51841;DHT22;37888;53.246;6.658;2022-09-09T05:48:30;14.60;99.90
51841;DHT22;37888;53.246;6.658;2022-09-09T05:50:56;14.60;99.90
51841;DHT22;37888;53.246;6.658;2022-09-09T05:53:23;14.60;99.90
51841;DHT22;37888;53.246;6.658;2022-09-09T05:55:49;14.50;99.90
51841;DHT22;37888;53.246;6.658;2022-09-09T05:58:15;14.60;99.90
51841;DHT22;37888;53.246;6.658;2022-09-09T06:00:42;14.60;99.90
51841;DHT22;37888;53.246;6.658;2022-09-09T06:03:10;14.60;99.90
51841;DHT22;37888;53.246;6.658;2022-09-09T06:05:36;14.60;99.90
51841;DHT22;37888;53.246;6.658;2022-09-09T06:08:02;14.60;99.90
51841;DHT22;37888;53.246;6.658;2022-09-09T06:10:28;14.60;99.90
51841;DHT22;37888;53.246;6.658;2022-09-09T06:12:54;14.60;99.90
51841;DHT22;37888;53.246;6.658;2022-09-09T06:15:20;14.60;99.90
51841;DHT22;37888;53.246;6.658;2022-09-09T06:17:46;14.60;99.90
51841;DHT22;37888;53.246;6.658;2022-09-09T06:20:12;14.60;99.90
51841;DHT22;37888;53.246;6.658;2022-09-09T06:22:39;14.60;99.90
51841;DHT22;37888;53.246;6.658;2022-09-09T06:25:07;14.70;99.90
51841;DHT22;37888;53.246;6.658;2022-09-09T06:27:33;14.60;99.90
51841;DHT22;37888;53.246;6.658;2022-09-09T06:29:59;14.60;99.90
51841;DHT22;37888;53.246;6.658;2022-09-09T06:32:25;14.70;99.90
51841;DHT22;37888;53.246;6.658;2022-09-09T06:34:52;14.70;99.90
51841;DHT22;37888;53.246;6.658;2022-09-09T06:37:18;14.70;99.90
51841;DHT22;37888;53.246;6.658;2022-09-09T06:39:44;14.70;99.90
51841;DHT22;37888;53.246;6.658;2022-09-09T06:42:10;14.70;99.90
51841;DHT22;37888;53.246;6.658;2022-09-09T06:44:36;14.70;99.90
51841;DHT22;37888;53.246;6.658;2022-09-09T06:47:01;14.70;99.90
51841;DHT22;37888;53.246;6.658;2022-09-09T06:49:27;14.70;99.90
51841;DHT22;37888;53.246;6.658;2022-09-09T06:51:53;14.80;99.90
51841;DHT22;37888;53.246;6.658;2022-09-09T06:54:19;14.80;99.90
51841;DHT22;37888;53.246;6.658;2022-09-09T06:56:45;14.80;99.90
51841;DHT22;37888;53.246;6.658;2022-09-09T06:59:12;14.80;99.90
51841;DHT22;37888;53.246;6.658;2022-09-09T07:01:40;14.90;99.90
51841;DHT22;37888;53.246;6.658;2022-09-09T07:04:06;14.90;99.90
51841;DHT22;37888;53.246;6.658;2022-09-09T07:06:35;15.00;99.90
51841;DHT22;37888;53.246;6.658;2022-09-09T07:09:03;15.00;99.90
51841;DHT22;37888;53.246;6.658;2022-09-09T07:11:30;15.00;99.90
51841;DHT22;37888;53.246;6.658;2022-09-09T07:13:57;15.10;99.90
51841;DHT22;37888;53.246;6.658;2022-09-09T07:16:23;15.10;99.90
51841;DHT22;37888;53.246;6.658;2022-09-09T07:18:50;15.20;99.90
51841;DHT22;37888;53.246;6.658;2022-09-09T07:21:16;15.20;99.90
51841;DHT22;37888;53.246;6.658;2022-09-09T07:23:42;15.20;99.90
51841;DHT22;37888;53.246;6.658;2022-09-09T07:26:09;15.20;99.90
51841;DHT22;37888;53.246;6.658;2022-09-09T07:28:36;15.30;99.90
51841;DHT22;37888;53.246;6.658;2022-09-09T07:31:02;15.30;99.90
51841;DHT22;37888;53.246;6.658;2022-09-09T07:33:29;15.40;99.90
51841;DHT22;37888;53.246;6.658;2022-09-09T07:36:05;15.40;99.90
51841;DHT22;37888;53.246;6.658;2022-09-09T07:38:42;15.40;99.90
51841;DHT22;37888;53.246;6.658;2022-09-09T07:41:10;15.40;99.90
51841;DHT22;37888;53.246;6.658;2022-09-09T07:43:38;15.50;99.90
51841;DHT22;37888;53.246;6.658;2022-09-09T07:46:05;15.50;99.90
51841;DHT22;37888;53.246;6.658;2022-09-09T07:48:31;15.60;99.90
51841;DHT22;37888;53.246;6.658;2022-09-09T07:53:29;15.60;99.90
51841;DHT22;37888;53.246;6.658;2022-09-09T07:56:07;15.70;99.90
51841;DHT22;37888;53.246;6.658;2022-09-09T07:58:35;15.70;99.90
51841;DHT22;37888;53.246;6.658;2022-09-09T08:01:05;15.70;99.90
51841;DHT22;37888;53.246;6.658;2022-09-09T08:03:31;15.80;99.90
51841;DHT22;37888;53.246;6.658;2022-09-09T08:05:59;15.90;99.90
51841;DHT22;37888;53.246;6.658;2022-09-09T08:08:27;16.00;99.90
51841;DHT22;37888;53.246;6.658;2022-09-09T08:10:53;16.00;99.90
51841;DHT22;37888;53.246;6.658;2022-09-09T08:13:19;16.10;99.90
51841;DHT22;37888;53.246;6.658;2022-09-09T08:15:44;16.20;99.90
51841;DHT22;37888;53.246;6.658;2022-09-09T08:18:10;16.30;99.90
51841;DHT22;37888;53.246;6.658;2022-09-09T08:20:36;16.40;99.90
51841;DHT22;37888;53.246;6.658;2022-09-09T08:23:03;16.40;99.90
51841;DHT22;37888;53.246;6.658;2022-09-09T08:25:31;16.50;99.90
51841;DHT22;37888;53.246;6.658;2022-09-09T08:27:57;16.70;99.90
51841;DHT22;37888;53.246;6.658;2022-09-09T08:30:22;17.00;99.90
51841;DHT22;37888;53.246;6.658;2022-09-09T08:32:48;17.20;99.90
51841;DHT22;37888;53.246;6.658;2022-09-09T08:35:16;17.20;99.90
51841;DHT22;37888;53.246;6.658;2022-09-09T08:37:43;17.20;99.90
51841;DHT22;37888;53.246;6.658;2022-09-09T08:40:11;17.20;99.90
51841;DHT22;37888;53.246;6.658;2022-09-09T08:42:47;17.10;99.90
51841;DHT22;37888;53.246;6.658;2022-09-09T08:45:19;17.10;99.90
51841;DHT22;37888;53.246;6.658;2022-09-09T08:53:09;17.40;99.90
51841;DHT22;37888;53.246;6.658;2022-09-09T08:55:56;17.50;99.90
51841;DHT22;37888;53.246;6.658;2022-09-09T09:06:04;17.60;99.90
51841;DHT22;37888;53.246;6.658;2022-09-09T09:11:03;17.90;99.90
51841;DHT22;37888;53.246;6.658;2022-09-09T09:16:19;18.00;99.90
51841;DHT22;37888;53.246;6.658;2022-09-09T09:18:47;18.10;99.90
51841;DHT22;37888;53.246;6.658;2022-09-09T09:21:19;18.10;99.90
51841;DHT22;37888;53.246;6.658;2022-09-09T09:24:00;18.10;99.90
51841;DHT22;37888;53.246;6.658;2022-09-09T09:26:44;18.00;99.90
51841;DHT22;37888;53.246;6.658;2022-09-09T09:29:11;18.00;99.90
51841;DHT22;37888;53.246;6.658;2022-09-09T09:31:37;18.00;99.90
51841;DHT22;37888;53.246;6.658;2022-09-09T09:34:03;18.00;99.90
51841;DHT22;37888;53.246;6.658;2022-09-09T09:36:43;17.90;99.90
51841;DHT22;37888;53.246;6.658;2022-09-09T09:39:10;17.90;99.90
51841;DHT22;37888;53.246;6.658;2022-09-09T09:41:36;17.80;99.90
51841;DHT22;37888;53.246;6.658;2022-09-09T09:44:04;17.80;99.90
51841;DHT22;37888;53.246;6.658;2022-09-09T09:46:31;17.80;99.90
51841;DHT22;37888;53.246;6.658;2022-09-09T09:49:04;17.80;99.90
51841;DHT22;37888;53.246;6.658;2022-09-09T09:51:31;18.00;99.90
51841;DHT22;37888;53.246;6.658;2022-09-09T09:54:03;18.00;99.90
51841;DHT22;37888;53.246;6.658;2022-09-09T09:56:32;18.00;99.90
51841;DHT22;37888;53.246;6.658;2022-09-09T09:58:58;18.00;99.90
51841;DHT22;37888;53.246;6.658;2022-09-09T10:01:25;18.00;99.90
51841;DHT22;37888;53.246;6.658;2022-09-09T10:04:00;18.00;99.90
51841;DHT22;37888;53.246;6.658;2022-09-09T10:06:34;18.00;99.90
51841;DHT22;37888;53.246;6.658;2022-09-09T10:09:01;18.10;99.90
51841;DHT22;37888;53.246;6.658;2022-09-09T10:11:40;18.00;99.90
51841;DHT22;37888;53.246;6.658;2022-09-09T10:14:19;18.00;99.90
51841;DHT22;37888;53.246;6.658;2022-09-09T10:16:57;17.90;99.90
51841;DHT22;37888;53.246;6.658;2022-09-09T10:24:44;17.90;99.90
51841;DHT22;37888;53.246;6.658;2022-09-09T10:27:33;18.00;99.90
51841;DHT22;37888;53.246;6.658;2022-09-09T10:30:16;18.10;99.90
51841;DHT22;37888;53.246;6.658;2022-09-09T10:32:52;18.30;99.90
51841;DHT22;37888;53.246;6.658;2022-09-09T10:35:31;18.60;99.90
51841;DHT22;37888;53.246;6.658;2022-09-09T10:43:16;19.30;99.90
51841;DHT22;37888;53.246;6.658;2022-09-09T10:45:51;19.30;99.90
51841;DHT22;37888;53.246;6.658;2022-09-09T10:56:04;19.20;99.90
51841;DHT22;37888;53.246;6.658;2022-09-09T10:58:53;19.20;99.90
51841;DHT22;37888;53.246;6.658;2022-09-09T11:04:16;19.10;99.90
51841;DHT22;37888;53.246;6.658;2022-09-09T11:06:44;19.10;99.90
51841;DHT22;37888;53.246;6.658;2022-09-09T11:09:15;19.20;99.90
51841;DHT22;37888;53.246;6.658;2022-09-09T11:11:53;19.50;99.90
51841;DHT22;37888;53.246;6.658;2022-09-09T11:17:04;19.80;99.90
51841;DHT22;37888;53.246;6.658;2022-09-09T11:19:35;19.70;99.90
51841;DHT22;37888;53.246;6.658;2022-09-09T11:22:07;19.50;99.90
51841;DHT22;37888;53.246;6.658;2022-09-09T11:24:41;19.50;99.90
51841;DHT22;37888;53.246;6.658;2022-09-09T11:29:52;19.70;99.90
51841;DHT22;37888;53.246;6.658;2022-09-09T11:32:47;19.70;99.90
51841;DHT22;37888;53.246;6.658;2022-09-09T11:35:33;19.60;99.90
51841;DHT22;37888;53.246;6.658;2022-09-09T11:40:53;20.10;99.90
51841;DHT22;37888;53.246;6.658;2022-09-09T11:43:30;20.20;99.90
51841;DHT22;37888;53.246;6.658;2022-09-09T11:45:58;20.20;99.90
51841;DHT22;37888;53.246;6.658;2022-09-09T11:48:34;20.30;99.90
51841;DHT22;37888;53.246;6.658;2022-09-09T11:51:02;20.30;99.90
51841;DHT22;37888;53.246;6.658;2022-09-09T11:53:28;20.40;99.90
51841;DHT22;37888;53.246;6.658;2022-09-09T11:56:05;20.50;99.90
51841;DHT22;37888;53.246;6.658;2022-09-09T11:58:33;20.40;99.90
51841;DHT22;37888;53.246;6.658;2022-09-09T12:01:14;20.30;99.90
51841;DHT22;37888;53.246;6.658;2022-09-09T12:03:50;20.10;99.90
51841;DHT22;37888;53.246;6.658;2022-09-09T12:06:19;19.90;99.90
51841;DHT22;37888;53.246;6.658;2022-09-09T12:08:51;19.80;99.90
51841;DHT22;37888;53.246;6.658;2022-09-09T12:11:25;19.90;99.90
51841;DHT22;37888;53.246;6.658;2022-09-09T12:13:56;20.00;99.90
51841;DHT22;37888;53.246;6.658;2022-09-09T12:16:33;19.90;99.90
51841;DHT22;37888;53.246;6.658;2022-09-09T12:19:12;19.80;99.90
51841;DHT22;37888;53.246;6.658;2022-09-09T12:21:45;19.70;99.90
51841;DHT22;37888;53.246;6.658;2022-09-09T12:24:14;19.60;99.90
51841;DHT22;37888;53.246;6.658;2022-09-09T12:26:43;19.60;99.90
51841;DHT22;37888;53.246;6.658;2022-09-09T12:34:23;19.80;99.90
51841;DHT22;37888;53.246;6.658;2022-09-09T12:36:53;19.90;99.90
51841;DHT22;37888;53.246;6.658;2022-09-09T12:39:24;19.90;99.90
51841;DHT22;37888;53.246;6.658;2022-09-09T12:41:55;19.90;99.90
51841;DHT22;37888;53.246;6.658;2022-09-09T12:44:23;19.90;99.90
51841;DHT22;37888;53.246;6.658;2022-09-09T12:47:00;19.90;99.90
51841;DHT22;37888;53.246;6.658;2022-09-09T12:49:34;19.80;99.90
51841;DHT22;37888;53.246;6.658;2022-09-09T12:52:21;19.70;99.90
51841;DHT22;37888;53.246;6.658;2022-09-09T12:54:48;19.70;99.90
51841;DHT22;37888;53.246;6.658;2022-09-09T12:57:17;19.70;99.90
51841;DHT22;37888;53.246;6.658;2022-09-09T12:59:43;19.80;99.90
51841;DHT22;37888;53.246;6.658;2022-09-09T13:02:18;19.90;99.90
51841;DHT22;37888;53.246;6.658;2022-09-09T13:04:44;19.90;99.90
51841;DHT22;37888;53.246;6.658;2022-09-09T13:12:48;19.90;99.90
51841;DHT22;37888;53.246;6.658;2022-09-09T13:15:19;19.90;99.90
51841;DHT22;37888;53.246;6.658;2022-09-09T13:17:50;20.00;99.90
51841;DHT22;37888;53.246;6.658;2022-09-09T13:20:17;20.00;99.90
51841;DHT22;37888;53.246;6.658;2022-09-09T13:22:43;20.10;99.90
51841;DHT22;37888;53.246;6.658;2022-09-09T13:27:40;20.20;99.90
51841;DHT22;37888;53.246;6.658;2022-09-09T13:30:20;20.20;99.90
51841;DHT22;37888;53.246;6.658;2022-09-09T13:32:59;20.30;99.90
51841;DHT22;37888;53.246;6.658;2022-09-09T13:35:26;20.30;99.90
51841;DHT22;37888;53.246;6.658;2022-09-09T13:37:52;20.30;99.90
51841;DHT22;37888;53.246;6.658;2022-09-09T13:40:22;20.20;99.90
51841;DHT22;37888;53.246;6.658;2022-09-09T13:42:53;20.10;99.90
51841;DHT22;37888;53.246;6.658;2022-09-09T13:45:21;20.10;99.90
51841;DHT22;37888;53.246;6.658;2022-09-09T13:47:47;20.00;99.90
51841;DHT22;37888;53.246;6.658;2022-09-09T13:52:50;20.00;99.90
51841;DHT22;37888;53.246;6.658;2022-09-09T13:55:21;19.90;99.90
51841;DHT22;37888;53.246;6.658;2022-09-09T13:57:55;19.80;99.90
51841;DHT22;37888;53.246;6.658;2022-09-09T14:00:21;19.70;99.90
51841;DHT22;37888;53.246;6.658;2022-09-09T14:02:50;19.70;99.90
51841;DHT22;37888;53.246;6.658;2022-09-09T14:05:16;19.60;99.90
51841;DHT22;37888;53.246;6.658;2022-09-09T14:07:47;19.60;99.90
51841;DHT22;37888;53.246;6.658;2022-09-09T14:10:14;19.60;99.90
51841;DHT22;37888;53.246;6.658;2022-09-09T14:12:40;19.70;99.90
51841;DHT22;37888;53.246;6.658;2022-09-09T14:15:06;19.80;99.90
51841;DHT22;37888;53.246;6.658;2022-09-09T14:17:32;19.90;99.90
51841;DHT22;37888;53.246;6.658;2022-09-09T14:19:59;19.90;99.90
51841;DHT22;37888;53.246;6.658;2022-09-09T14:22:32;19.90;99.90
51841;DHT22;37888;53.246;6.658;2022-09-09T14:24:58;19.90;99.90
51841;DHT22;37888;53.246;6.658;2022-09-09T14:27:24;19.80;99.90
51841;DHT22;37888;53.246;6.658;2022-09-09T14:29:52;19.80;99.90
51841;DHT22;37888;53.246;6.658;2022-09-09T14:32:18;19.70;99.90
51841;DHT22;37888;53.246;6.658;2022-09-09T14:34:44;19.60;99.90
51841;DHT22;37888;53.246;6.658;2022-09-09T14:37:16;19.60;99.90
51841;DHT22;37888;53.246;6.658;2022-09-09T14:39:46;19.50;99.90
51841;DHT22;37888;53.246;6.658;2022-09-09T14:42:13;19.60;99.90
51841;DHT22;37888;53.246;6.658;2022-09-09T14:44:39;19.60;99.90
51841;DHT22;37888;53.246;6.658;2022-09-09T14:47:06;19.60;99.90
51841;DHT22;37888;53.246;6.658;2022-09-09T14:49:36;19.50;99.90
51841;DHT22;37888;53.246;6.658;2022-09-09T14:52:03;19.40;99.90
51841;DHT22;37888;53.246;6.658;2022-09-09T14:54:31;19.30;99.90
51841;DHT22;37888;53.246;6.658;2022-09-09T14:56:57;19.30;99.90
51841;DHT22;37888;53.246;6.658;2022-09-09T14:59:23;19.20;99.90
51841;DHT22;37888;53.246;6.658;2022-09-09T15:01:49;18.90;99.90
51841;DHT22;37888;53.246;6.658;2022-09-09T15:04:15;18.80;99.90
51841;DHT22;37888;53.246;6.658;2022-09-09T15:06:42;18.60;99.90
51841;DHT22;37888;53.246;6.658;2022-09-09T15:09:09;18.40;99.90
51841;DHT22;37888;53.246;6.658;2022-09-09T15:11:36;18.30;99.90
51841;DHT22;37888;53.246;6.658;2022-09-09T15:14:05;18.20;99.90
51841;DHT22;37888;53.246;6.658;2022-09-09T15:16:32;18.20;99.90
51841;DHT22;37888;53.246;6.658;2022-09-09T15:18:58;18.20;99.90
51841;DHT22;37888;53.246;6.658;2022-09-09T15:21:25;18.20;99.90
51841;DHT22;37888;53.246;6.658;2022-09-09T15:23:51;18.20;99.90
51841;DHT22;37888;53.246;6.658;2022-09-09T15:26:17;18.30;99.90
51841;DHT22;37888;53.246;6.658;2022-09-09T15:28:45;18.30;99.90
51841;DHT22;37888;53.246;6.658;2022-09-09T15:31:13;18.30;99.90
51841;DHT22;37888;53.246;6.658;2022-09-09T15:33:40;18.40;99.90
51841;DHT22;37888;53.246;6.658;2022-09-09T15:36:22;18.40;99.90
51841;DHT22;37888;53.246;6.658;2022-09-09T15:38:48;18.40;99.90
51841;DHT22;37888;53.246;6.658;2022-09-09T15:41:15;18.40;99.90
51841;DHT22;37888;53.246;6.658;2022-09-09T15:43:44;18.40;99.90
51841;DHT22;37888;53.246;6.658;2022-09-09T15:46:21;18.40;99.90
51841;DHT22;37888;53.246;6.658;2022-09-09T15:48:50;18.40;99.90
51841;DHT22;37888;53.246;6.658;2022-09-09T15:51:16;18.30;99.90
51841;DHT22;37888;53.246;6.658;2022-09-09T15:53:42;18.30;99.90
51841;DHT22;37888;53.246;6.658;2022-09-09T15:56:08;18.20;99.90
51841;DHT22;37888;53.246;6.658;2022-09-09T15:58:35;18.20;99.90
51841;DHT22;37888;53.246;6.658;2022-09-09T16:01:10;18.10;99.90
51841;DHT22;37888;53.246;6.658;2022-09-09T16:03:42;17.90;99.90
51841;DHT22;37888;53.246;6.658;2022-09-09T16:06:08;18.10;99.90
51841;DHT22;37888;53.246;6.658;2022-09-09T16:08:39;18.10;99.90
51841;DHT22;37888;53.246;6.658;2022-09-09T16:11:06;18.10;99.90
51841;DHT22;37888;53.246;6.658;2022-09-09T16:13:33;18.00;99.90
51841;DHT22;37888;53.246;6.658;2022-09-09T16:15:59;18.00;99.90
51841;DHT22;37888;53.246;6.658;2022-09-09T16:18:25;18.00;99.90
51841;DHT22;37888;53.246;6.658;2022-09-09T16:20:54;18.00;99.90
51841;DHT22;37888;53.246;6.658;2022-09-09T16:23:20;18.00;99.90
51841;DHT22;37888;53.246;6.658;2022-09-09T16:25:55;18.00;99.90
51841;DHT22;37888;53.246;6.658;2022-09-09T16:28:21;17.90;99.90
51841;DHT22;37888;53.246;6.658;2022-09-09T16:30:50;18.00;99.90
51841;DHT22;37888;53.246;6.658;2022-09-09T16:33:16;18.10;99.90
51841;DHT22;37888;53.246;6.658;2022-09-09T16:35:50;17.90;99.90
51841;DHT22;37888;53.246;6.658;2022-09-09T16:38:16;17.90;99.90
51841;DHT22;37888;53.246;6.658;2022-09-09T16:40:42;17.90;99.90
51841;DHT22;37888;53.246;6.658;2022-09-09T16:43:08;17.90;99.90
51841;DHT22;37888;53.246;6.658;2022-09-09T16:45:41;17.80;99.90
51841;DHT22;37888;53.246;6.658;2022-09-09T16:48:08;17.90;99.90
51841;DHT22;37888;53.246;6.658;2022-09-09T16:50:34;17.80;99.90
51841;DHT22;37888;53.246;6.658;2022-09-09T16:53:00;17.80;99.90
51841;DHT22;37888;53.246;6.658;2022-09-09T16:55:29;17.80;99.90
51841;DHT22;37888;53.246;6.658;2022-09-09T17:00:41;17.70;99.90
51841;DHT22;37888;53.246;6.658;2022-09-09T17:03:11;17.70;99.90
51841;DHT22;37888;53.246;6.658;2022-09-09T17:05:41;17.70;99.90
51841;DHT22;37888;53.246;6.658;2022-09-09T17:08:07;17.60;99.90
51841;DHT22;37888;53.246;6.658;2022-09-09T17:10:32;17.60;99.90
51841;DHT22;37888;53.246;6.658;2022-09-09T17:12:58;17.60;99.90
51841;DHT22;37888;53.246;6.658;2022-09-09T17:15:24;17.50;99.90
51841;DHT22;37888;53.246;6.658;2022-09-09T17:17:50;17.50;99.90
51841;DHT22;37888;53.246;6.658;2022-09-09T17:20:19;17.50;99.90
51841;DHT22;37888;53.246;6.658;2022-09-09T17:22:45;17.40;99.90
51841;DHT22;37888;53.246;6.658;2022-09-09T17:25:11;17.10;99.90
51841;DHT22;37888;53.246;6.658;2022-09-09T17:27:37;17.40;99.90
51841;DHT22;37888;53.246;6.658;2022-09-09T17:30:04;17.40;99.90